createdAt,value
2018-10-21T00:00:27.308Z,0
2018-10-21T00:01:28.697Z,0
2018-10-21T00:02:30.136Z,0
2018-10-21T00:03:31.428Z,0
2018-10-21T00:04:32.816Z,0
2018-10-21T00:05:34.197Z,0
2018-10-21T00:06:35.581Z,0
2018-10-21T00:07:36.963Z,0
2018-10-21T00:08:38.350Z,0
2018-10-21T00:09:39.760Z,0
2018-10-21T00:10:41.147Z,0
2018-10-21T00:11:42.534Z,0
2018-10-21T00:12:43.916Z,0
2018-10-21T00:13:45.393Z,0
2018-10-21T00:14:46.823Z,0
2018-10-21T00:15:48.208Z,0
2018-10-21T00:16:49.592Z,0
2018-10-21T00:17:50.977Z,0
2018-10-21T00:18:52.368Z,0
2018-10-21T00:19:53.752Z,0
2018-10-21T00:20:55.140Z,0
2018-10-21T00:21:56.517Z,0
2018-10-21T00:22:57.902Z,0
2018-10-21T00:23:59.292Z,0
2018-10-21T00:25:00.681Z,0
2018-10-21T00:26:02.078Z,0
2018-10-21T00:27:03.488Z,0
2018-10-21T00:28:04.845Z,0
2018-10-21T00:29:06.229Z,0
2018-10-21T00:30:07.611Z,0
2018-10-21T00:31:08.994Z,0
2018-10-21T00:32:10.379Z,0
2018-10-21T00:33:11.793Z,0
2018-10-21T00:34:13.147Z,0
2018-10-21T00:35:14.531Z,0
2018-10-21T00:36:15.916Z,0
2018-10-21T00:37:17.301Z,0
2018-10-21T00:38:18.686Z,0
2018-10-21T00:39:20.072Z,0
2018-10-21T00:40:21.455Z,0
2018-10-21T00:41:22.839Z,0
2018-10-21T00:42:24.221Z,0
2018-10-21T00:43:25.606Z,0
2018-10-21T00:44:26.993Z,0
2018-10-21T00:45:28.379Z,0
2018-10-21T00:46:29.767Z,0
2018-10-21T00:47:31.149Z,0
2018-10-21T00:48:32.541Z,0
2018-10-21T00:49:33.919Z,0
2018-10-21T00:50:35.300Z,0
2018-10-21T00:51:36.686Z,0
2018-10-21T00:52:38.074Z,0
2018-10-21T00:53:39.463Z,0
2018-10-21T00:54:40.850Z,0
2018-10-21T00:55:42.234Z,0
2018-10-21T00:56:43.619Z,0
2018-10-21T00:57:45.005Z,0
2018-10-21T00:58:46.395Z,0
2018-10-21T00:59:47.781Z,0
2018-10-21T01:00:49.165Z,0
2018-10-21T01:01:50.552Z,0
2018-10-21T01:02:51.934Z,0
2018-10-21T01:03:53.317Z,0
2018-10-21T01:04:54.791Z,0
2018-10-21T01:05:56.217Z,0
2018-10-21T01:06:57.607Z,0
2018-10-21T01:07:58.993Z,0
2018-10-21T01:09:00.405Z,0
2018-10-21T01:10:01.761Z,0
2018-10-21T01:11:03.151Z,0
2018-10-21T01:12:04.534Z,0
2018-10-21T01:13:05.919Z,0
2018-10-21T01:14:07.307Z,0
2018-10-21T01:15:08.748Z,0
2018-10-21T01:16:10.074Z,0
2018-10-21T01:17:11.475Z,0
2018-10-21T01:18:12.846Z,0
2018-10-21T01:19:14.230Z,0
2018-10-21T01:20:15.617Z,0
2018-10-21T01:21:17.068Z,0
2018-10-21T01:22:18.398Z,0
2018-10-21T01:23:19.775Z,0
2018-10-21T01:24:21.156Z,0
2018-10-21T01:25:22.547Z,0
2018-10-21T01:26:23.946Z,0
2018-10-21T01:27:25.334Z,0
2018-10-21T01:28:26.721Z,0
2018-10-21T01:29:28.157Z,0
2018-10-21T01:30:29.488Z,0
2018-10-21T01:31:30.873Z,0
2018-10-21T01:32:32.259Z,0
2018-10-21T01:33:33.648Z,0
2018-10-21T01:34:35.038Z,0
2018-10-21T01:35:36.424Z,0
2018-10-21T01:36:38.078Z,0
2018-10-21T01:37:39.241Z,0
2018-10-21T01:38:40.590Z,0
2018-10-21T01:39:41.991Z,0
2018-10-21T01:40:43.378Z,0
2018-10-21T01:41:44.762Z,0
2018-10-21T01:42:46.144Z,0
2018-10-21T01:43:47.527Z,0
2018-10-21T01:44:48.918Z,0
2018-10-21T01:45:50.300Z,0
2018-10-21T01:46:51.690Z,0
2018-10-21T01:47:53.074Z,0
2018-10-21T01:48:54.465Z,0
2018-10-21T01:49:55.853Z,0
2018-10-21T01:50:57.244Z,0
2018-10-21T01:51:58.626Z,0
2018-10-21T01:53:00.008Z,0
2018-10-21T01:54:01.396Z,0
2018-10-21T01:55:02.776Z,0
2018-10-21T01:56:04.234Z,0
2018-10-21T01:57:05.691Z,0
2018-10-21T01:58:06.988Z,0
2018-10-21T01:59:08.378Z,0
2018-10-21T02:00:09.756Z,0
2018-10-21T02:01:11.135Z,0
2018-10-21T02:02:12.522Z,0
2018-10-21T02:03:13.964Z,0
2018-10-21T02:04:15.291Z,0
2018-10-21T02:05:16.680Z,0
2018-10-21T02:06:18.062Z,0
2018-10-21T02:07:19.445Z,0
2018-10-21T02:08:20.832Z,0
2018-10-21T02:09:22.217Z,0
2018-10-21T02:10:23.603Z,0
2018-10-21T02:11:24.983Z,0
2018-10-21T02:12:26.370Z,0
2018-10-21T02:13:27.758Z,0
2018-10-21T02:14:29.140Z,0
2018-10-21T02:15:30.521Z,0
2018-10-21T02:16:31.905Z,0
2018-10-21T02:17:33.290Z,0
2018-10-21T02:18:34.724Z,0
2018-10-21T02:19:36.061Z,0
2018-10-21T02:20:37.443Z,0
2018-10-21T02:21:38.828Z,0
2018-10-21T02:22:40.208Z,0
2018-10-21T02:23:41.591Z,0
2018-10-21T02:24:42.976Z,0
2018-10-21T02:25:44.367Z,0
2018-10-21T02:26:45.782Z,0
2018-10-21T02:27:47.144Z,0
2018-10-21T02:28:48.527Z,0
2018-10-21T02:29:49.911Z,0
2018-10-21T02:30:51.292Z,0
2018-10-21T02:31:52.674Z,0
2018-10-21T02:32:54.155Z,0
2018-10-21T02:33:55.446Z,0
2018-10-21T02:34:56.830Z,0
2018-10-21T02:35:58.212Z,0
2018-10-21T02:36:59.591Z,0
2018-10-21T02:38:00.972Z,0
2018-10-21T02:39:02.381Z,0
2018-10-21T02:40:03.742Z,0
2018-10-21T02:41:05.132Z,0
2018-10-21T02:42:06.517Z,0
2018-10-21T02:43:07.900Z,0
2018-10-21T02:44:09.280Z,0
2018-10-21T02:45:10.696Z,0
2018-10-21T02:46:12.053Z,0
2018-10-21T02:47:13.469Z,0
2018-10-21T02:48:14.941Z,0
2018-10-21T02:49:16.324Z,0
2018-10-21T02:50:17.712Z,0
2018-10-21T02:51:19.139Z,0
2018-10-21T02:52:20.479Z,0
2018-10-21T02:53:21.862Z,0
2018-10-21T02:54:23.244Z,0
2018-10-21T02:55:24.632Z,0
2018-10-21T02:56:26.020Z,0
2018-10-21T02:57:27.411Z,0
2018-10-21T02:58:28.793Z,0
2018-10-21T02:59:30.183Z,0
2018-10-21T03:00:31.570Z,0
2018-10-21T03:01:32.953Z,0
2018-10-21T03:02:34.342Z,0
2018-10-21T03:03:35.731Z,0
2018-10-21T03:04:37.119Z,0
2018-10-21T03:05:38.510Z,0
2018-10-21T03:06:39.878Z,0
2018-10-21T03:07:41.270Z,0
2018-10-21T03:08:42.654Z,0
2018-10-21T03:09:44.052Z,0
2018-10-21T03:10:45.441Z,0
2018-10-21T03:11:46.818Z,0
2018-10-21T03:12:48.207Z,0
2018-10-21T03:13:49.593Z,0
2018-10-21T03:14:50.973Z,0
2018-10-21T03:15:52.357Z,0
2018-10-21T03:16:53.758Z,0
2018-10-21T03:17:55.138Z,0
2018-10-21T03:18:56.520Z,0
2018-10-21T03:19:57.908Z,0
2018-10-21T03:20:59.363Z,0
2018-10-21T03:22:00.680Z,0
2018-10-21T03:23:02.060Z,0
2018-10-21T03:24:03.446Z,0
2018-10-21T03:25:04.837Z,0
2018-10-21T03:26:06.217Z,0
2018-10-21T03:27:07.630Z,0
2018-10-21T03:28:08.983Z,0
2018-10-21T03:29:10.366Z,0
2018-10-21T03:30:11.754Z,0
2018-10-21T03:31:13.144Z,0
2018-10-21T03:32:14.527Z,0
2018-10-21T03:33:16.029Z,0
2018-10-21T03:34:17.308Z,0
2018-10-21T03:35:18.694Z,0
2018-10-21T03:36:20.074Z,0
2018-10-21T03:37:21.457Z,0
2018-10-21T03:38:22.903Z,0
2018-10-21T03:39:24.420Z,0
2018-10-21T03:40:25.807Z,0
2018-10-21T03:41:27.203Z,0
2018-10-21T03:42:28.587Z,0
2018-10-21T03:43:29.976Z,0
2018-10-21T03:44:31.361Z,0
2018-10-21T03:45:32.750Z,0
2018-10-21T03:46:34.133Z,0
2018-10-21T03:47:35.516Z,0
2018-10-21T03:48:36.895Z,0
2018-10-21T03:49:38.277Z,0
2018-10-21T03:50:39.663Z,0
2018-10-21T03:51:41.047Z,0
2018-10-21T03:52:42.431Z,0
2018-10-21T03:53:43.815Z,0
2018-10-21T03:54:45.194Z,0
2018-10-21T03:55:46.585Z,0
2018-10-21T03:56:47.967Z,0
2018-10-21T03:57:49.348Z,0
2018-10-21T03:58:50.730Z,0
2018-10-21T03:59:52.116Z,0
2018-10-21T04:00:53.507Z,0
2018-10-21T04:01:54.892Z,0
2018-10-21T04:02:56.277Z,0
2018-10-21T04:03:57.701Z,0
2018-10-21T04:04:59.040Z,0
2018-10-21T04:06:00.427Z,0
2018-10-21T04:07:01.818Z,0
2018-10-21T04:08:03.200Z,0
2018-10-21T04:09:04.585Z,0
2018-10-21T04:10:05.987Z,0
2018-10-21T04:11:07.354Z,0
2018-10-21T04:12:08.736Z,0
2018-10-21T04:13:10.123Z,0
2018-10-21T04:14:11.507Z,0
2018-10-21T04:15:12.891Z,0
2018-10-21T04:16:14.362Z,0
2018-10-21T04:17:15.653Z,0
2018-10-21T04:18:17.036Z,0
2018-10-21T04:19:18.417Z,0
2018-10-21T04:20:19.810Z,0
2018-10-21T04:21:21.193Z,0
2018-10-21T04:22:22.578Z,0
2018-10-21T04:23:23.963Z,0
2018-10-21T04:24:25.348Z,0
2018-10-21T04:25:26.732Z,0
2018-10-21T04:26:28.116Z,0
2018-10-21T04:27:29.506Z,0
2018-10-21T04:28:30.894Z,0
2018-10-21T04:29:32.412Z,0
2018-10-21T04:30:33.830Z,0
2018-10-21T04:31:35.214Z,0
2018-10-21T04:32:36.600Z,0
2018-10-21T04:33:37.978Z,0
2018-10-21T04:34:39.365Z,0
2018-10-21T04:35:40.751Z,0
2018-10-21T04:36:42.139Z,0
2018-10-21T04:37:43.521Z,0
2018-10-21T04:38:44.903Z,0
2018-10-21T04:39:46.285Z,0
2018-10-21T04:40:47.672Z,0
2018-10-21T04:41:49.058Z,0
2018-10-21T04:42:50.445Z,0
2018-10-21T04:43:51.835Z,0
2018-10-21T04:44:53.228Z,0
2018-10-21T04:45:54.647Z,0
2018-10-21T04:46:56.156Z,0
2018-10-21T04:47:57.375Z,0
2018-10-21T04:48:58.760Z,0
2018-10-21T04:50:00.145Z,0
2018-10-21T04:51:01.533Z,0
2018-10-21T04:52:02.912Z,0
2018-10-21T04:53:04.293Z,0
2018-10-21T04:54:05.697Z,0
2018-10-21T04:55:07.066Z,0
2018-10-21T04:56:08.456Z,0
2018-10-21T04:57:09.841Z,0
2018-10-21T04:58:11.302Z,0
2018-10-21T04:59:12.613Z,0
2018-10-21T05:00:14.000Z,0
2018-10-21T05:01:15.377Z,0
2018-10-21T05:02:16.762Z,0
2018-10-21T05:03:18.145Z,0
2018-10-21T05:04:19.531Z,0
2018-10-21T05:05:20.917Z,0
2018-10-21T05:06:22.294Z,0
2018-10-21T05:07:23.729Z,0
2018-10-21T05:08:25.060Z,0
2018-10-21T05:09:26.444Z,0
2018-10-21T05:10:27.828Z,0
2018-10-21T05:11:29.211Z,0
2018-10-21T05:12:30.601Z,0
2018-10-21T05:13:31.983Z,0
2018-10-21T05:14:33.367Z,0
2018-10-21T05:15:34.757Z,0
2018-10-21T05:16:36.154Z,0
2018-10-21T05:17:37.528Z,0
2018-10-21T05:18:38.915Z,0
2018-10-21T05:19:40.300Z,0
2018-10-21T05:20:41.732Z,0
2018-10-21T05:21:43.142Z,0
2018-10-21T05:22:44.526Z,0
2018-10-21T05:23:45.951Z,0
2018-10-21T05:24:47.298Z,0
2018-10-21T05:25:48.683Z,4
2018-10-21T05:26:50.071Z,4
2018-10-21T05:27:51.454Z,4
2018-10-21T05:28:52.856Z,4
2018-10-21T05:29:54.241Z,4
2018-10-21T05:30:55.629Z,4
2018-10-21T05:31:57.022Z,4
2018-10-21T05:32:58.399Z,4
2018-10-21T05:33:59.796Z,4
2018-10-21T05:35:01.166Z,0
2018-10-21T05:36:02.544Z,0
2018-10-21T05:37:03.927Z,0
2018-10-21T05:38:05.310Z,0
2018-10-21T05:39:06.695Z,4
2018-10-21T05:40:08.106Z,4
2018-10-21T05:41:09.464Z,4
2018-10-21T05:42:10.847Z,4
2018-10-21T05:43:12.229Z,4
2018-10-21T05:44:13.613Z,4
2018-10-21T05:45:15.000Z,4
2018-10-21T05:46:16.452Z,4
2018-10-21T05:47:17.830Z,4
2018-10-21T05:48:19.111Z,8
2018-10-21T05:49:20.498Z,8
2018-10-21T05:50:21.889Z,12
2018-10-21T05:51:23.263Z,12
2018-10-21T05:52:24.649Z,16
2018-10-21T05:53:26.036Z,16
2018-10-21T05:54:27.422Z,16
2018-10-21T05:55:28.807Z,24
2018-10-21T05:56:30.192Z,24
2018-10-21T05:57:31.579Z,28
2018-10-21T05:58:32.967Z,32
2018-10-21T05:59:34.358Z,36
2018-10-21T06:00:35.735Z,44
2018-10-21T06:01:37.126Z,44
2018-10-21T06:02:38.512Z,52
2018-10-21T06:03:39.898Z,56
2018-10-21T06:04:41.281Z,64
2018-10-21T06:05:42.670Z,72
2018-10-21T06:06:44.063Z,80
2018-10-21T06:07:45.455Z,84
2018-10-21T06:08:46.842Z,96
2018-10-21T06:09:48.231Z,104
2018-10-21T06:10:49.622Z,112
2018-10-21T06:11:51.021Z,120
2018-10-21T06:12:52.456Z,128
2018-10-21T06:13:53.847Z,140
2018-10-21T06:14:55.235Z,148
2018-10-21T06:15:56.669Z,160
2018-10-21T06:16:58.012Z,172
2018-10-21T06:17:59.395Z,180
2018-10-21T06:19:00.781Z,192
2018-10-21T06:20:02.170Z,200
2018-10-21T06:21:03.556Z,212
2018-10-21T06:22:05.017Z,220
2018-10-21T06:23:06.330Z,232
2018-10-21T06:24:07.721Z,244
2018-10-21T06:25:09.106Z,256
2018-10-21T06:26:10.494Z,268
2018-10-21T06:27:11.877Z,280
2018-10-21T06:28:13.263Z,292
2018-10-21T06:29:14.651Z,304
2018-10-21T06:30:16.053Z,312
2018-10-21T06:31:17.448Z,328
2018-10-21T06:32:18.835Z,336
2018-10-21T06:33:20.226Z,348
2018-10-21T06:34:21.614Z,364
2018-10-21T06:35:23.026Z,372
2018-10-21T06:36:24.414Z,384
2018-10-21T06:37:25.805Z,396
2018-10-21T06:38:27.196Z,408
2018-10-21T06:39:28.590Z,420
2018-10-21T06:40:29.975Z,432
2018-10-21T06:41:31.363Z,440
2018-10-21T06:42:32.749Z,456
2018-10-21T06:43:34.145Z,468
2018-10-21T06:44:35.536Z,476
2018-10-21T06:45:36.971Z,488
2018-10-21T06:46:38.317Z,500
2018-10-21T06:47:39.708Z,512
2018-10-21T06:48:41.099Z,520
2018-10-21T06:49:42.496Z,532
2018-10-21T06:50:43.885Z,544
2018-10-21T06:51:45.270Z,556
2018-10-21T06:52:46.660Z,564
2018-10-21T06:53:48.053Z,572
2018-10-21T06:54:49.440Z,584
2018-10-21T06:55:50.829Z,600
2018-10-21T06:56:52.291Z,608
2018-10-21T06:57:53.744Z,620
2018-10-21T06:58:55.031Z,632
2018-10-21T06:59:56.423Z,644
2018-10-21T07:00:57.819Z,656
2018-10-21T07:01:59.246Z,668
2018-10-21T07:03:00.705Z,680
2018-10-21T07:04:02.163Z,692
2018-10-21T07:05:03.610Z,696
2018-10-21T07:06:04.927Z,712
2018-10-21T07:07:06.317Z,724
2018-10-21T07:08:07.704Z,732
2018-10-21T07:09:09.093Z,744
2018-10-21T07:10:10.533Z,756
2018-10-21T07:11:11.864Z,764
2018-10-21T07:12:13.252Z,776
2018-10-21T07:13:14.640Z,788
2018-10-21T07:14:16.029Z,796
2018-10-21T07:15:17.482Z,808
2018-10-21T07:16:18.812Z,812
2018-10-21T07:17:20.202Z,820
2018-10-21T07:18:21.591Z,836
2018-10-21T07:19:22.983Z,848
2018-10-21T07:20:24.377Z,856
2018-10-21T07:21:25.768Z,864
2018-10-21T07:22:27.154Z,872
2018-10-21T07:23:28.542Z,888
2018-10-21T07:24:29.932Z,892
2018-10-21T07:25:31.316Z,896
2018-10-21T07:26:32.707Z,900
2018-10-21T07:27:34.097Z,904
2018-10-21T07:28:35.665Z,908
2018-10-21T07:29:36.875Z,916
2018-10-21T07:30:38.267Z,920
2018-10-21T07:31:39.657Z,928
2018-10-21T07:32:41.052Z,940
2018-10-21T07:33:42.439Z,948
2018-10-21T07:34:43.831Z,956
2018-10-21T07:35:45.220Z,964
2018-10-21T07:36:46.608Z,968
2018-10-21T07:37:47.996Z,972
2018-10-21T07:38:49.380Z,984
2018-10-21T07:39:50.767Z,992
2018-10-21T07:40:52.160Z,1000
2018-10-21T07:41:53.579Z,1004
2018-10-21T07:42:55.057Z,1008
2018-10-21T07:43:56.462Z,1028
2018-10-21T07:44:57.848Z,1036
2018-10-21T07:45:59.252Z,1048
2018-10-21T07:47:00.628Z,1056
2018-10-21T07:48:02.014Z,1060
2018-10-21T07:49:03.486Z,1068
2018-10-21T07:50:04.767Z,1084
2018-10-21T07:51:06.180Z,1092
2018-10-21T07:52:07.682Z,1100
2018-10-21T07:53:09.113Z,1104
2018-10-21T07:54:10.547Z,1112
2018-10-21T07:55:11.974Z,1116
2018-10-21T07:56:13.335Z,1120
2018-10-21T07:57:14.725Z,1124
2018-10-21T07:58:16.191Z,1140
2018-10-21T07:59:17.533Z,1152
2018-10-21T08:00:18.926Z,1168
2018-10-21T08:01:20.349Z,1176
2018-10-21T08:02:21.779Z,1184
2018-10-21T08:03:23.178Z,1192
2018-10-21T08:04:24.687Z,1208
2018-10-21T08:05:26.079Z,1216
2018-10-21T08:06:27.468Z,1228
2018-10-21T08:07:28.858Z,1244
2018-10-21T08:08:30.322Z,1252
2018-10-21T08:09:31.668Z,1268
2018-10-21T08:10:33.059Z,1284
2018-10-21T08:11:34.460Z,1296
2018-10-21T08:12:35.849Z,1316
2018-10-21T08:13:37.237Z,1316
2018-10-21T08:14:38.669Z,1320
2018-10-21T08:15:40.036Z,1320
2018-10-21T08:16:41.431Z,1332
2018-10-21T08:17:42.847Z,1332
2018-10-21T08:18:44.230Z,1340
2018-10-21T08:19:45.622Z,1352
2018-10-21T08:20:47.012Z,1368
2018-10-21T08:21:48.399Z,1384
2018-10-21T08:22:49.788Z,1404
2018-10-21T08:23:51.180Z,1416
2018-10-21T08:24:52.571Z,1448
2018-10-21T08:25:54.008Z,1476
2018-10-21T08:26:55.413Z,1508
2018-10-21T08:27:56.844Z,1544
2018-10-21T08:28:58.241Z,1572
2018-10-21T08:29:59.635Z,1600
2018-10-21T08:31:01.037Z,1620
2018-10-21T08:32:02.428Z,1660
2018-10-21T08:33:04.005Z,1700
2018-10-21T08:34:05.537Z,1744
2018-10-21T08:35:07.446Z,1788
2018-10-21T08:36:08.938Z,1832
2018-10-21T08:37:10.232Z,1880
2018-10-21T08:38:11.622Z,1940
2018-10-21T08:39:13.355Z,1992
2018-10-21T08:40:14.909Z,2036
2018-10-21T08:41:16.222Z,2104
2018-10-21T08:42:17.625Z,2160
2018-10-21T08:43:19.017Z,2224
2018-10-21T08:44:20.408Z,2288
2018-10-21T08:45:21.808Z,2384
2018-10-21T08:46:23.342Z,2480
2018-10-21T08:47:24.571Z,2580
2018-10-21T08:48:25.967Z,2672
2018-10-21T08:49:27.366Z,2760
2018-10-21T08:50:28.771Z,2848
2018-10-21T08:51:30.165Z,2960
2018-10-21T08:52:31.566Z,3096
2018-10-21T08:53:32.977Z,3224
2018-10-21T08:54:34.394Z,3344
2018-10-21T08:55:35.785Z,3456
2018-10-21T08:56:37.178Z,3580
2018-10-21T08:57:38.571Z,3660
2018-10-21T08:58:39.970Z,3736
2018-10-21T08:59:41.374Z,3792
2018-10-21T09:00:42.861Z,3880
2018-10-21T09:01:44.257Z,3928
2018-10-21T09:02:45.654Z,3996
2018-10-21T09:03:47.051Z,4036
2018-10-21T09:04:48.441Z,4096
2018-10-21T09:05:49.846Z,4180
2018-10-21T09:06:51.245Z,4244
2018-10-21T09:07:52.655Z,4312
2018-10-21T09:08:54.079Z,4388
2018-10-21T09:09:55.499Z,4464
2018-10-21T09:10:56.936Z,4544
2018-10-21T09:11:58.297Z,4620
2018-10-21T09:12:59.711Z,4712
2018-10-21T09:14:01.097Z,4788
2018-10-21T09:15:02.502Z,4864
2018-10-21T09:16:03.962Z,4992
2018-10-21T09:17:05.550Z,5092
2018-10-21T09:18:07.023Z,5212
2018-10-21T09:19:08.491Z,5364
2018-10-21T09:20:09.815Z,5512
2018-10-21T09:21:11.211Z,5624
2018-10-21T09:22:12.856Z,6128
2018-10-21T09:23:14.182Z,9924
2018-10-21T09:24:15.580Z,12244
2018-10-21T09:25:17.061Z,11712
2018-10-21T09:26:18.455Z,14148
2018-10-21T09:27:19.986Z,18496
2018-10-21T09:28:21.384Z,26272
2018-10-21T09:29:22.795Z,31072
2018-10-21T09:30:24.268Z,31104
2018-10-21T09:31:25.667Z,30272
2018-10-21T09:32:27.053Z,30944
2018-10-21T09:33:28.564Z,32736
2018-10-21T09:34:29.891Z,38752
2018-10-21T09:35:31.289Z,45440
2018-10-21T09:36:32.693Z,45856
2018-10-21T09:37:34.095Z,47072
2018-10-21T09:38:35.499Z,47552
2018-10-21T09:39:36.902Z,47328
2018-10-21T09:40:38.309Z,49632
2018-10-21T09:41:39.707Z,53248
2018-10-21T09:42:41.105Z,55296
2018-10-21T09:43:42.507Z,55872
2018-10-21T09:44:43.918Z,52928
2018-10-21T09:45:45.316Z,51232
2018-10-21T09:46:46.716Z,50976
2018-10-21T09:47:48.117Z,52096
2018-10-21T09:48:49.519Z,51392
2018-10-21T09:49:51.006Z,49856
2018-10-21T09:50:52.347Z,50304
2018-10-21T09:51:53.764Z,50560
2018-10-21T09:52:55.170Z,47328
2018-10-21T09:53:56.572Z,49152
2018-10-21T09:54:58.006Z,51808
2018-10-21T09:55:59.370Z,51712
2018-10-21T09:57:00.781Z,52032
2018-10-21T09:58:02.284Z,53664
2018-10-21T09:59:03.614Z,57472
2018-10-21T10:00:05.018Z,57184
2018-10-21T10:01:06.582Z,54400
2018-10-21T10:02:07.922Z,56160
2018-10-21T10:03:09.334Z,59360
2018-10-21T10:04:10.776Z,58944
2018-10-21T10:05:12.193Z,57984
2018-10-21T10:06:13.544Z,55840
2018-10-21T10:07:15.097Z,52960
2018-10-21T10:08:16.353Z,58816
2018-10-21T10:09:17.754Z,61568
2018-10-21T10:10:19.158Z,58144
2018-10-21T10:11:20.574Z,56224
2018-10-21T10:12:21.991Z,57120
2018-10-21T10:13:23.515Z,57568
2018-10-21T10:14:25.026Z,59520
2018-10-21T10:15:26.474Z,59712
2018-10-21T10:16:27.887Z,57056
2018-10-21T10:17:29.366Z,57376
2018-10-21T10:18:30.781Z,58816
2018-10-21T10:19:33.110Z,58048
2018-10-21T10:20:34.534Z,58528
2018-10-21T10:21:36.452Z,63360
2018-10-21T10:22:37.977Z,63392
2018-10-21T10:23:39.819Z,59168
2018-10-21T10:24:41.581Z,59392
2018-10-21T10:25:43.399Z,62272
2018-10-21T10:26:45.295Z,61184
2018-10-21T10:27:47.057Z,60352
2018-10-21T10:28:48.714Z,60480
2018-10-21T10:29:50.333Z,61664
2018-10-21T10:30:52.394Z,60064
2018-10-21T10:31:54.044Z,58528
2018-10-21T10:32:55.853Z,57536
2018-10-21T10:33:57.595Z,58656
2018-10-21T10:34:59.289Z,59584
2018-10-21T10:36:00.937Z,59808
2018-10-21T10:37:02.583Z,59712
2018-10-21T10:38:04.228Z,59776
2018-10-21T10:39:05.893Z,61344
2018-10-21T10:40:07.706Z,62272
2018-10-21T10:41:09.293Z,64544
2018-10-21T10:42:10.871Z,63968
2018-10-21T10:43:12.649Z,59808
2018-10-21T10:44:14.254Z,58048
2018-10-21T10:45:15.809Z,59328
2018-10-21T10:46:17.851Z,61184
2018-10-21T10:47:19.545Z,40800
2018-10-21T10:48:21.128Z,15392
2018-10-21T10:49:22.784Z,10608
2018-10-21T10:50:24.479Z,10260
2018-10-21T10:51:26.076Z,10064
2018-10-21T10:52:27.814Z,9956
2018-10-21T10:53:29.338Z,9892
2018-10-21T10:54:31.044Z,9776
2018-10-21T10:55:32.624Z,9764
2018-10-21T10:56:34.409Z,9960
2018-10-21T10:57:36.061Z,10756
2018-10-21T10:58:37.903Z,12364
2018-10-21T10:59:39.694Z,13644
2018-10-21T11:00:41.219Z,28320
2018-10-21T11:01:42.855Z,53440
2018-10-21T11:02:44.600Z,64352
2018-10-21T11:03:46.313Z,64992
2018-10-21T11:04:48.062Z,61536
2018-10-21T11:05:50.006Z,62528
2018-10-21T11:06:51.801Z,62112
2018-10-21T11:07:53.500Z,60992
2018-10-21T11:08:55.410Z,60608
2018-10-21T11:09:57.224Z,60800
2018-10-21T11:10:59.088Z,59360
2018-10-21T11:12:00.970Z,48000
2018-10-21T11:13:02.724Z,20480
2018-10-21T11:14:04.421Z,9964
2018-10-21T11:15:06.216Z,9640
2018-10-21T11:16:08.097Z,9464
2018-10-21T11:17:09.971Z,9376
2018-10-21T11:18:11.836Z,9296
2018-10-21T11:19:13.536Z,9236
2018-10-21T11:20:15.271Z,9160
2018-10-21T11:21:17.075Z,9088
2018-10-21T11:22:19.117Z,9012
2018-10-21T11:23:21.105Z,9016
2018-10-21T11:24:23.189Z,8904
2018-10-21T11:25:24.708Z,8868
2018-10-21T11:26:27.085Z,8868
2018-10-21T11:27:28.944Z,8828
2018-10-21T11:28:30.960Z,8760
2018-10-21T11:29:33.020Z,8716
2018-10-21T11:30:35.018Z,8684
2018-10-21T11:31:36.719Z,8624
2018-10-21T11:32:38.892Z,8624
2018-10-21T11:33:40.551Z,8640
2018-10-21T11:34:42.438Z,8608
2018-10-21T11:35:44.398Z,8568
2018-10-21T11:36:46.096Z,8516
2018-10-21T11:37:47.785Z,8476
2018-10-21T11:38:49.586Z,8500
2018-10-21T11:39:51.419Z,8500
2018-10-21T11:40:52.941Z,8448
2018-10-21T11:41:54.986Z,8404
2018-10-21T11:42:56.718Z,8400
2018-10-21T11:43:58.387Z,8348
2018-10-21T11:45:00.524Z,8352
2018-10-21T11:46:02.516Z,8328
2018-10-21T11:47:04.248Z,8308
2018-10-21T11:48:05.950Z,8308
2018-10-21T11:49:07.975Z,8228
2018-10-21T11:50:09.785Z,8208
2018-10-21T11:51:11.678Z,8188
2018-10-21T11:52:13.847Z,8176
2018-10-21T11:53:15.569Z,8168
2018-10-21T11:54:17.516Z,8136
2018-10-21T11:55:19.625Z,8108
2018-10-21T11:56:21.222Z,8072
2018-10-21T11:57:23.303Z,8084
2018-10-21T11:58:24.975Z,8072
2018-10-21T11:59:26.660Z,8056
2018-10-21T12:00:28.399Z,8024
2018-10-21T12:01:30.010Z,7980
2018-10-21T12:02:31.814Z,7908
2018-10-21T12:03:33.676Z,7908
2018-10-21T12:04:35.337Z,7900
2018-10-21T12:05:37.178Z,7864
2018-10-21T12:06:39.012Z,7836
2018-10-21T12:07:40.741Z,7816
2018-10-21T12:08:42.535Z,7812
2018-10-21T12:09:44.422Z,7776
2018-10-21T12:10:46.203Z,7744
2018-10-21T12:11:48.026Z,7724
2018-10-21T12:12:49.845Z,7700
2018-10-21T12:13:52.510Z,7696
2018-10-21T12:14:54.435Z,7664
2018-10-21T12:15:56.114Z,7616
2018-10-21T12:16:58.075Z,7572
2018-10-21T12:17:59.746Z,7520
2018-10-21T12:19:01.520Z,7488
2018-10-21T12:20:03.496Z,7472
2018-10-21T12:21:05.146Z,7448
2018-10-21T12:22:07.143Z,7412
2018-10-21T12:23:08.978Z,7424
2018-10-21T12:24:10.912Z,7416
2018-10-21T12:25:13.001Z,7376
2018-10-21T12:26:14.706Z,7340
2018-10-21T12:27:16.298Z,7300
2018-10-21T12:28:18.185Z,7276
2018-10-21T12:29:20.041Z,7252
2018-10-21T12:30:21.770Z,7220
2018-10-21T12:31:23.643Z,7156
2018-10-21T12:32:25.277Z,7132
2018-10-21T12:33:27.105Z,7096
2018-10-21T12:34:28.999Z,7060
2018-10-21T12:35:31.685Z,7044
2018-10-21T12:36:33.406Z,7032
2018-10-21T12:37:35.291Z,6984
2018-10-21T12:38:37.203Z,6956
2018-10-21T12:39:39.116Z,6920
2018-10-21T12:40:41.000Z,6920
2018-10-21T12:41:42.858Z,6892
2018-10-21T12:42:44.525Z,6848
2018-10-21T12:43:46.434Z,6860
2018-10-21T12:44:48.332Z,6820
2018-10-21T12:45:50.124Z,6788
2018-10-21T12:46:51.968Z,6788
2018-10-21T12:47:53.885Z,6756
2018-10-21T12:48:55.635Z,6732
2018-10-21T12:49:57.533Z,6704
2018-10-21T12:50:59.281Z,6652
2018-10-21T12:52:01.697Z,6624
2018-10-21T12:53:03.516Z,6596
2018-10-21T12:54:05.252Z,6552
2018-10-21T12:55:07.044Z,6552
2018-10-21T12:56:08.642Z,6512
2018-10-21T12:57:10.467Z,6484
2018-10-21T12:58:12.219Z,6476
2018-10-21T12:59:14.626Z,6452
2018-10-21T13:00:16.573Z,6432
2018-10-21T13:01:18.227Z,6380
2018-10-21T13:02:19.924Z,6360
2018-10-21T13:03:21.660Z,6328
2018-10-21T13:04:23.466Z,6320
2018-10-21T13:05:25.269Z,6312
2018-10-21T13:06:27.023Z,6276
2018-10-21T13:07:28.824Z,6256
2018-10-21T13:08:30.627Z,6224
2018-10-21T13:09:32.685Z,6204
2018-10-21T13:10:34.442Z,6152
2018-10-21T13:11:36.103Z,6096
2018-10-21T13:12:37.827Z,6068
2018-10-21T13:13:39.443Z,6032
2018-10-21T13:14:41.141Z,6004
2018-10-21T13:15:42.911Z,5964
2018-10-21T13:16:44.630Z,5948
2018-10-21T13:17:46.607Z,5880
2018-10-21T13:18:49.234Z,5868
2018-10-21T13:19:51.124Z,5840
2018-10-21T13:20:52.832Z,5816
2018-10-21T13:21:54.484Z,5776
2018-10-21T13:22:56.301Z,5760
2018-10-21T13:23:58.165Z,5752
2018-10-21T13:24:59.886Z,5724
2018-10-21T13:26:01.793Z,5688
2018-10-21T13:27:03.860Z,5620
2018-10-21T13:28:05.925Z,5576
2018-10-21T13:29:07.866Z,5560
2018-10-21T13:30:09.935Z,5488
2018-10-21T13:31:11.982Z,5476
2018-10-21T13:32:13.947Z,5456
2018-10-21T13:33:16.040Z,5432
2018-10-21T13:34:18.148Z,5368
2018-10-21T13:35:19.979Z,5336
2018-10-21T13:36:22.328Z,5320
2018-10-21T13:37:24.324Z,5276
2018-10-21T13:38:26.065Z,5240
2018-10-21T13:39:28.217Z,5216
2018-10-21T13:40:30.127Z,5192
2018-10-21T13:41:31.819Z,5160
2018-10-21T13:42:33.675Z,5140
2018-10-21T13:43:35.526Z,5088
2018-10-21T13:44:37.615Z,5052
2018-10-21T13:45:39.841Z,5012
2018-10-21T13:46:41.972Z,4984
2018-10-21T13:47:44.009Z,4944
2018-10-21T13:48:46.069Z,4912
2018-10-21T13:49:47.736Z,4884
2018-10-21T13:50:49.699Z,4864
2018-10-21T13:51:52.088Z,4828
2018-10-21T13:52:54.231Z,4800
2018-10-21T13:53:56.314Z,4756
2018-10-21T13:54:58.293Z,4740
2018-10-21T13:56:00.175Z,4704
2018-10-21T13:57:02.085Z,4680
2018-10-21T13:58:05.008Z,4644
2018-10-21T13:59:07.443Z,4608
2018-10-21T14:00:09.444Z,4564
2018-10-21T14:01:11.462Z,4508
2018-10-21T14:02:13.539Z,4480
2018-10-21T14:03:15.965Z,4460
2018-10-21T14:04:18.167Z,4436
2018-10-21T14:05:20.316Z,4388
2018-10-21T14:06:22.379Z,4352
2018-10-21T14:07:25.008Z,4308
2018-10-21T14:08:27.487Z,4268
2018-10-21T14:09:30.368Z,4216
2018-10-21T14:10:33.156Z,4180
2018-10-21T14:11:35.777Z,4112
2018-10-21T14:12:38.227Z,4040
2018-10-21T14:13:40.498Z,3980
2018-10-21T14:14:42.646Z,4024